< Typhoon 196734 1967 Season Typhoon 196736 >
Typhoon 196735 (EMMA)
General InformationTrack Information on Google Maps || Disaster Info.ResourceGoogle EarthGE AnimationAtom FeedGeoJSON
Detalied Best Track (Time Zone = UTC)
Year Month Day Hour Lat. Long. Pressure (hPa) Wind (kt) Class Image Chart
1967 10 30 00 6.5 150.0 1008 0 2 -- Chart
1967 10 30 06 6.7 148.0 1004 0 2 -- Chart
1967 10 30 12 7.0 146.0 1004 0 2 -- Chart
1967 10 30 18 7.3 144.9 1000 0 2 -- Chart
1967 10 31 00 7.7 143.8 992 0 9 -- Chart
1967 10 31 06 8.2 142.3 990 0 9 -- Chart
1967 10 31 12 8.5 140.9 985 0 9 -- Chart
1967 10 31 18 8.6 139.4 980 0 9 -- Chart
1967 11 1 00 8.7 138.0 975 0 9 -- Chart
1967 11 1 06 8.8 136.7 970 0 9 -- Chart
1967 11 1 12 9.3 135.5 960 0 9 -- Chart
1967 11 1 18 9.9 134.1 950 0 9 -- Chart
1967 11 2 00 10.2 132.4 940 0 9 -- Chart
1967 11 2 06 10.6 131.0 930 0 9 -- Chart
1967 11 2 12 11.2 129.7 930 0 9 -- Chart
1967 11 2 18 11.7 128.3 920 0 9 -- Chart
1967 11 3 00 12.2 126.9 908 0 9 -- Chart
1967 11 3 06 12.6 125.3 930 0 9 -- Chart
1967 11 3 12 12.8 124.2 950 0 9 -- Chart
1967 11 3 18 13.2 123.4 960 0 9 -- Chart
1967 11 4 00 14.0 121.9 965 0 9 -- Chart
1967 11 4 06 14.7 120.9 970 0 9 -- Chart
1967 11 4 12 15.6 119.5 970 0 9 -- Chart
1967 11 4 18 16.1 118.5 975 0 9 -- Chart
1967 11 5 00 16.2 117.3 980 0 9 -- Chart
1967 11 5 06 16.7 117.0 982 0 9 -- Chart
1967 11 5 12 17.5 116.6 982 0 9 -- Chart
1967 11 5 18 17.7 116.1 982 0 9 -- Chart
1967 11 6 00 17.8 115.5 982 0 9 -- Chart
1967 11 6 06 18.0 114.9 980 0 9 -- Chart
1967 11 6 12 18.3 114.2 980 0 9 -- Chart
1967 11 6 18 18.7 113.6 984 0 9 -- Chart
1967 11 7 00 19.2 113.0 985 0 9 -- Chart
1967 11 7 06 19.7 112.2 985 0 9 -- Chart
1967 11 7 12 20.4 111.6 985 0 9 -- Chart
1967 11 7 18 20.9 111.0 990 0 9 -- Chart
1967 11 8 00 21.2 110.0 1004 0 2 -- Chart
1967 11 8 06 21.5 109.5 1006 0 2 -- Chart
1967 11 8 12 21.4 108.6 1010 0 2 -- Chart
1967 11 8 18 21.4 108.1 1010 0 2 -- Chart
Japan Meteorological Agency Best Track Data | Correction Date : 1989-06-01
< Typhoon 196734 1967 Season Typhoon 196736 >

Help